Time;durP1;ratioP1;P1;durP2;ratioP2;P2;SDS_P1;SDS_P2;PMS_P1;PMS_P2;Temp;Humidity;BMP_temperature;BMP_pressure;BME280_temperature;BME280_humidity;BME280_pressure;Samples;Min_cycle;Max_cycle;Signal;HPM_P1;HPM_P2
2022/04/15 00:02:43;;;;;;;;;15.00;13.60;;;;;19.64;25.26;98857.34;6257960;27;97691;-71
2022/04/15 00:05:46;;;;;;;;;16.00;14.60;;;;;19.66;25.45;98866.06;6241355;27;96737;-69
2022/04/15 00:08:49;;;;;;;;;15.40;13.00;;;;;19.60;25.60;98866.34;6234905;27;100073;-70
2022/04/15 00:11:53;;;;;;;;;15.60;14.00;;;;;19.60;26.13;98867.19;6260679;27;97578;-70
2022/04/15 00:14:56;;;;;;;;;15.80;14.80;;;;;19.57;26.35;98867.75;6242607;27;98999;-69
2022/04/15 00:18:02;;;;;;;;;16.00;15.00;;;;;19.52;26.42;98870.50;6232964;27;99790;-71
2022/04/15 00:21:05;;;;;;;;;18.00;17.00;;;;;19.35;26.28;98857.13;6256900;27;96592;-71
2022/04/15 00:24:08;;;;;;;;;17.40;14.40;;;;;19.38;26.13;98883.13;6246252;27;97564;-70
2022/04/15 00:27:12;;;;;;;;;14.60;13.80;;;;;19.27;25.99;98882.31;6241950;27;98606;-70
2022/04/15 00:30:16;;;;;;;;;18.00;16.00;;;;;19.16;26.21;98886.19;6242331;27;96558;-71
2022/04/15 00:33:21;;;;;;;;;22.00;18.20;;;;;18.86;26.96;98842.56;6260652;27;96991;-70
2022/04/15 00:36:25;;;;;;;;;20.00;18.00;;;;;18.93;27.75;98863.00;6259820;27;97407;-71
2022/04/15 00:39:28;;;;;;;;;23.00;21.40;;;;;18.70;27.87;98862.78;6241828;27;96812;-71
2022/04/15 00:42:32;;;;;;;;;21.00;18.40;;;;;18.63;28.02;98864.97;6259988;27;97520;-71
2022/04/15 00:45:35;;;;;;;;;22.75;21.00;;;;;18.57;28.23;98862.22;6260327;27;96653;-70
2022/04/15 00:48:42;;;;;;;;;19.20;17.80;;;;;18.47;28.13;98862.22;6221846;27;98092;-70
2022/04/15 00:51:48;;;;;;;;;22.00;19.40;;;;;18.40;28.26;98872.59;6233420;28;98173;-70
2022/04/15 00:54:53;;;;;;;;;21.60;20.00;;;;;18.35;27.90;98869.03;6237460;28;97194;-70
2022/04/15 00:57:58;;;;;;;;;17.00;16.00;;;;;18.32;28.08;98869.59;6259876;27;98004;-71
2022/04/15 01:01:02;;;;;;;;;17.40;16.40;;;;;18.05;27.91;98851.56;6225374;28;96962;-72
2022/04/15 01:04:08;;;;;;;;;21.75;17.75;;;;;18.24;28.21;98875.56;6218597;28;100048;-71
2022/04/15 01:07:15;;;;;;;;;17.80;17.00;;;;;18.15;28.40;98870.66;6253800;27;97192;-71
2022/04/15 01:10:21;;;;;;;;;20.00;18.00;;;;;18.05;28.15;98857.00;6246182;27;97464;-70
2022/04/15 01:13:25;;;;;;;;;18.40;17.80;;;;;18.03;28.21;98861.91;6261476;27;97589;-72
2022/04/15 01:16:32;;;;;;;;;18.80;17.00;;;;;18.12;28.40;98868.50;6261484;27;96535;-71
2022/04/15 01:19:38;;;;;;;;;16.00;14.60;;;;;18.16;28.17;98858.66;6228090;27;96800;-71
2022/04/15 01:22:43;;;;;;;;;17.25;16.00;;;;;18.12;28.00;98843.94;6225929;27;98198;-71
2022/04/15 01:25:47;;;;;;;;;16.75;14.75;;;;;18.20;28.11;98856.22;6243117;27;100834;-71
2022/04/15 01:28:51;;;;;;;;;18.00;15.00;;;;;18.22;27.90;98850.50;6260521;27;97170;-70
2022/04/15 01:31:54;;;;;;;;;17.20;15.00;;;;;18.23;28.03;98847.47;6242772;27;97589;-70
2022/04/15 01:34:57;;;;;;;;;19.20;18.00;;;;;18.26;28.11;98849.66;6260725;27;97380;-71
2022/04/15 01:38:02;;;;;;;;;18.40;17.00;;;;;18.27;28.34;98845.03;6233451;27;97462;-72
2022/04/15 01:41:07;;;;;;;;;20.60;16.00;;;;;18.27;28.14;98850.50;6253454;27;96711;-70
2022/04/15 01:44:15;;;;;;;;;19.40;17.00;;;;;18.24;28.20;98851.84;6260646;27;97666;-71
2022/04/15 01:47:19;;;;;;;;;18.80;16.00;;;;;18.13;28.56;98845.56;6260542;27;96704;-71
2022/04/15 01:50:23;;;;;;;;;18.80;16.80;;;;;18.16;28.50;98839.56;6260954;27;96447;-70
2022/04/15 01:53:26;;;;;;;;;16.40;15.40;;;;;18.19;28.62;98840.91;6261259;27;96963;-70
2022/04/15 01:56:31;;;;;;;;;16.75;14.75;;;;;18.24;28.45;98837.38;6260633;27;97407;-69
2022/04/15 01:59:34;;;;;;;;;16.00;14.00;;;;;18.29;28.43;98848.28;6242381;27;96673;-71
2022/04/15 02:02:37;;;;;;;;;15.40;14.40;;;;;18.30;28.53;98850.75;6242266;27;96780;-69
2022/04/15 02:05:41;;;;;;;;;16.00;13.80;;;;;18.32;28.79;98848.59;6246700;27;97026;-70
2022/04/15 02:08:44;;;;;;;;;16.40;15.00;;;;;18.40;29.00;98844.47;6235093;27;97497;-70
2022/04/15 02:11:49;;;;;;;;;20.40;19.00;;;;;18.35;29.50;98847.22;6237989;27;97394;-70
2022/04/15 02:14:53;;;;;;;;;17.80;17.00;;;;;18.25;30.01;98845.28;6210161;27;97220;-70
2022/04/15 02:17:56;;;;;;;;;20.00;18.00;;;;;18.18;30.01;98856.47;6246131;27;99997;-70
2022/04/15 02:20:59;;;;;;;;;19.40;17.00;;;;;18.05;30.71;98850.72;6257464;27;97147;-71
2022/04/15 02:24:03;;;;;;;;;21.00;19.00;;;;;18.03;30.96;98842.81;6261066;27;96502;-72
2022/04/15 02:27:07;;;;;;;;;20.00;19.40;;;;;18.07;31.53;98851.28;6264382;27;97540;-71
2022/04/15 02:30:11;;;;;;;;;18.50;17.00;;;;;18.06;32.00;98847.75;6263167;27;97491;-71
2022/04/15 02:33:14;;;;;;;;;18.80;17.80;;;;;18.13;32.15;98847.50;6262112;27;97042;-72
2022/04/15 02:36:18;;;;;;;;;18.00;16.80;;;;;18.15;32.84;98857.03;6235444;27;98409;-70
2022/04/15 02:39:21;;;;;;;;;19.00;17.25;;;;;18.11;33.38;98855.94;6246429;27;96542;-70
2022/04/15 02:42:27;;;;;;;;;19.40;19.40;;;;;18.00;33.94;98848.00;6263635;27;97117;-71
2022/04/15 02:45:30;;;;;;;;;21.00;18.50;;;;;18.22;33.94;98861.41;6245787;27;97513;-70
2022/04/15 02:48:34;;;;;;;;;25.00;21.00;;;;;18.19;34.20;98866.31;6263105;27;97397;-70
2022/04/15 02:51:38;;;;;;;;;22.50;20.00;;;;;18.25;34.36;98860.84;6245170;27;96712;-71
2022/04/15 02:54:41;;;;;;;;;22.00;20.00;;;;;18.17;35.03;98862.22;6263551;27;97486;-71
2022/04/15 02:57:45;;;;;;;;;23.00;21.50;;;;;18.18;35.54;98867.38;6256973;27;96634;-70
2022/04/15 03:00:49;;;;;;;;;26.00;24.00;;;;;18.09;36.34;98877.19;6242468;27;96767;-71
2022/04/15 03:03:52;;;;;;;;;25.00;23.40;;;;;17.87;36.26;98819.34;6262836;27;97078;-70
2022/04/15 03:06:55;;;;;;;;;27.00;25.00;;;;;18.14;36.52;98869.03;6249078;27;98005;-71
2022/04/15 03:09:59;;;;;;;;;27.00;23.00;;;;;18.13;37.47;98872.03;6256697;27;97365;-71
2022/04/15 03:13:04;;;;;;;;;29.75;26.75;;;;;18.11;38.11;98872.31;6241606;27;96677;-71
2022/04/15 03:16:08;;;;;;;;;31.00;26.00;;;;;18.10;38.11;98886.22;6259057;27;97195;-71
2022/04/15 03:19:11;;;;;;;;;30.00;28.00;;;;;18.07;38.53;98889.50;6261338;27;96734;-72
2022/04/15 03:22:17;;;;;;;;;31.00;28.00;;;;;17.91;38.80;98872.25;6257147;27;96727;-71
2022/04/15 03:25:20;;;;;;;;;30.50;27.00;;;;;17.76;39.63;98880.41;6259276;27;97518;-71
2022/04/15 03:28:25;;;;;;;;;38.00;30.60;;;;;17.85;39.46;98883.41;6238487;27;96726;-72
2022/04/15 03:31:28;;;;;;;;;28.00;25.00;;;;;17.78;39.75;98891.88;6238702;27;97844;-72
2022/04/15 03:34:32;;;;;;;;;28.00;26.00;;;;;17.62;40.23;98885.53;6261311;27;96706;-71
2022/04/15 03:37:35;;;;;;;;;33.00;27.80;;;;;17.64;40.67;98901.66;6261397;27;97058;-71
2022/04/15 03:40:38;;;;;;;;;32.80;28.80;;;;;17.58;41.03;98905.41;6226953;27;99038;-71
2022/04/15 03:43:43;;;;;;;;;33.25;30.00;;;;;17.49;41.33;98899.66;6242651;27;98386;-71
2022/04/15 03:46:46;;;;;;;;;35.00;30.50;;;;;17.56;41.28;98893.94;6260070;27;97528;-72
2022/04/15 03:49:49;;;;;;;;;29.20;27.00;;;;;17.56;41.23;98883.84;6240994;27;96839;-70
2022/04/15 03:52:54;;;;;;;;;35.00;30.00;;;;;17.39;41.49;98875.06;6241523;27;97176;-70
2022/04/15 03:55:57;;;;;;;;;31.80;29.00;;;;;17.54;41.48;98893.41;6260470;27;96599;-71
2022/04/15 03:59:03;;;;;;;;;32.80;30.00;;;;;17.54;41.92;98896.94;6239574;27;99828;-71
2022/04/15 04:02:06;;;;;;;;;39.00;30.80;;;;;17.66;41.78;98892.09;6257291;27;98127;-71
2022/04/15 04:05:13;;;;;;;;;34.00;30.00;;;;;17.69;42.29;98901.66;6261750;27;97172;-71
2022/04/15 04:08:16;;;;;;;;;35.00;32.00;;;;;17.71;42.14;98910.38;6260029;27;97070;-71
2022/04/15 04:11:21;;;;;;;;;34.40;29.40;;;;;17.69;42.52;98912.56;6254473;27;97396;-71
2022/04/15 04:14:26;;;;;;;;;34.50;30.00;;;;;17.72;42.58;98923.75;6243299;27;97010;-71
2022/04/15 04:17:29;;;;;;;;;35.00;30.00;;;;;17.68;42.67;98933.56;6237756;27;97862;-70
2022/04/15 04:20:32;;;;;;;;;33.00;29.00;;;;;17.68;42.45;98928.09;6261320;27;97541;-71
2022/04/15 04:23:36;;;;;;;;;35.40;31.00;;;;;17.45;42.47;98898.50;6257364;27;96597;-71
2022/04/15 04:26:39;;;;;;;;;37.00;32.00;;;;;17.61;42.18;98924.78;6236936;27;97498;-71
2022/04/15 04:29:43;;;;;;;;;37.20;30.00;;;;;17.84;42.27;98958.97;6239997;27;98948;-72
2022/04/15 04:32:49;;;;;;;;;37.00;32.00;;;;;17.79;42.36;98952.69;6255476;27;97916;-71
2022/04/15 04:36:00;;;;;;;;;37.40;32.20;;;;;17.86;42.22;98954.06;6258839;27;96787;-70
2022/04/15 04:39:07;;;;;;;;;37.20;31.00;;;;;17.87;42.02;98954.91;6256000;27;97117;-71
2022/04/15 04:42:11;;;;;;;;;36.40;31.40;;;;;17.86;42.15;98950.53;6260315;27;97461;-70
2022/04/15 04:45:16;;;;;;;;;37.25;32.00;;;;;17.84;42.16;98934.41;6248366;27;96786;-72
2022/04/15 04:48:19;;;;;;;;;37.00;32.00;;;;;17.94;42.03;98958.19;6234103;27;96764;-68
2022/04/15 04:51:23;;;;;;;;;33.60;30.00;;;;;17.94;42.28;98963.63;6256656;27;96664;-74
2022/04/15 04:54:26;;;;;;;;;38.00;32.00;;;;;17.89;42.32;98958.16;6260030;27;96887;-74
2022/04/15 04:57:29;;;;;;;;;39.40;33.00;;;;;17.71;42.52;98945.81;6241605;27;99173;-72
2022/04/15 05:00:34;;;;;;;;;38.40;32.40;;;;;17.86;42.76;98972.34;6259436;27;97505;-73
2022/04/15 05:03:37;;;;;;;;;36.40;32.00;;;;;17.71;42.59;98940.38;6254032;27;98303;-71
2022/04/15 05:06:41;;;;;;;;;33.60;30.00;;;;;17.97;42.46;98974.03;6261293;27;98106;-71
2022/04/15 05:09:44;;;;;;;;;38.00;30.40;;;;;18.00;42.48;98965.28;6243296;27;97801;-72
2022/04/15 05:12:47;;;;;;;;;38.60;32.20;;;;;18.05;42.56;98968.88;6243068;27;97072;-71
2022/04/15 05:15:52;;;;;;;;;39.20;33.00;;;;;17.97;43.05;98972.13;6241605;27;98579;-72
2022/04/15 05:18:56;;;;;;;;;35.60;30.00;;;;;17.96;43.19;98975.09;6261351;27;96679;-72
2022/04/15 05:21:59;;;;;;;;;36.80;32.00;;;;;17.89;43.38;98991.72;6257809;27;97218;-72
2022/04/15 05:25:03;;;;;;;;;39.40;32.00;;;;;17.99;43.06;98991.75;6257785;27;97462;-70
2022/04/15 05:28:07;;;;;;;;;36.00;32.00;;;;;18.03;43.37;98994.78;6257648;27;97728;-70
2022/04/15 05:31:11;;;;;;;;;32.80;30.00;;;;;18.01;43.59;98996.94;6260083;27;96703;-71
2022/04/15 05:34:15;;;;;;;;;36.50;32.00;;;;;18.03;43.56;99008.44;6258201;27;97584;-72
2022/04/15 05:37:18;;;;;;;;;37.00;31.20;;;;;17.98;43.96;99013.88;6260256;27;97993;-70
2022/04/15 05:40:22;;;;;;;;;35.00;30.40;;;;;17.96;44.43;99016.84;6242947;27;96999;-70
2022/04/15 05:43:25;;;;;;;;;37.00;32.00;;;;;17.97;44.64;99009.50;6242667;27;99980;-70
2022/04/15 05:46:30;;;;;;;;;36.60;30.40;;;;;17.95;44.91;99019.84;6240417;27;100133;-70
2022/04/15 05:49:34;;;;;;;;;34.00;30.50;;;;;17.86;45.40;99000.44;6224119;27;98076;-70
2022/04/15 05:52:37;;;;;;;;;36.60;30.40;;;;;17.83;45.58;99000.97;6258831;27;97331;-72
2022/04/15 05:55:41;;;;;;;;;31.60;27.80;;;;;17.74;45.89;98989.72;6243112;27;97912;-72
2022/04/15 05:58:44;;;;;;;;;31.00;28.00;;;;;17.68;46.31;98992.72;6243010;27;97943;-69
2022/04/15 06:01:50;;;;;;;;;36.40;31.40;;;;;17.68;46.26;99004.44;6241728;27;98518;-71
2022/04/15 06:04:53;;;;;;;;;33.00;30.00;;;;;17.77;46.38;99007.50;6230419;28;97536;-70
2022/04/15 06:07:56;;;;;;;;;33.40;29.40;;;;;17.78;46.53;99011.88;6252838;27;97552;-70
2022/04/15 06:11:00;;;;;;;;;32.80;29.80;;;;;17.79;46.74;99015.41;6261938;27;97376;-70
2022/04/15 06:14:06;;;;;;;;;35.00;30.00;;;;;17.73;47.07;99006.38;6261489;27;96551;-70
2022/04/15 06:17:10;;;;;;;;;32.60;27.00;;;;;17.78;46.86;99011.03;6241894;27;96942;-71
2022/04/15 06:20:13;;;;;;;;;29.60;26.00;;;;;17.69;47.23;99003.34;6242242;27;97212;-72
2022/04/15 06:23:18;;;;;;;;;31.00;27.50;;;;;17.70;47.51;98993.25;6259540;27;96516;-72
2022/04/15 06:26:21;;;;;;;;;32.20;29.20;;;;;17.62;47.83;99007.41;6243085;27;98075;-72
2022/04/15 06:29:25;;;;;;;;;32.00;29.50;;;;;17.64;48.04;99016.16;6243214;27;96644;-73
2022/04/15 06:32:29;;;;;;;;;31.20;27.20;;;;;17.63;48.35;99022.69;6256043;27;97135;-71
2022/04/15 06:35:33;;;;;;;;;29.00;27.20;;;;;17.62;48.37;99015.59;6253789;27;97016;-73
2022/04/15 06:38:36;;;;;;;;;31.40;28.00;;;;;17.64;48.74;99030.59;6227033;27;97408;-70
2022/04/15 06:41:40;;;;;;;;;28.75;26.00;;;;;17.66;48.79;99028.44;6255771;27;98057;-72
2022/04/15 06:44:43;;;;;;;;;30.00;26.00;;;;;17.70;48.84;99034.97;6260675;27;97368;-74
2022/04/15 06:47:48;;;;;;;;;30.00;27.40;;;;;17.73;48.89;99030.94;6219666;27;96742;-72
2022/04/15 06:50:53;;;;;;;;;32.20;28.00;;;;;17.65;49.04;99013.13;6234810;27;99624;-70
2022/04/15 06:53:57;;;;;;;;;31.40;27.80;;;;;17.73;49.38;99026.28;6253451;27;97358;-69
2022/04/15 06:57:00;;;;;;;;;28.00;27.20;;;;;17.77;49.41;99033.94;6253031;27;98519;-69
2022/04/15 07:00:05;;;;;;;;;35.60;30.00;;;;;17.83;49.37;99017.34;6244314;27;96824;-71
2022/04/15 07:03:12;;;;;;;;;35.00;29.40;;;;;17.89;49.52;99021.72;6265143;27;97438;-71
2022/04/15 07:06:15;;;;;;;;;33.80;27.60;;;;;17.96;49.27;99022.31;6233311;27;96918;-72
2022/04/15 07:09:19;;;;;;;;;32.50;28.75;;;;;18.04;49.11;99021.78;6250666;27;96857;-69
2022/04/15 07:12:22;;;;;;;;;29.60;27.40;;;;;18.11;49.07;99024.28;6256102;27;96556;-69
2022/04/15 07:15:25;;;;;;;;;30.00;28.00;;;;;18.05;48.77;99009.78;6254388;27;97188;-70
2022/04/15 07:18:30;;;;;;;;;27.00;25.00;;;;;18.21;49.01;99020.75;6251086;27;96657;-72
2022/04/15 07:21:33;;;;;;;;;33.00;29.00;;;;;18.27;49.13;99020.53;6221510;28;98174;-72
2022/04/15 07:24:36;;;;;;;;;31.50;29.00;;;;;18.08;48.93;98983.91;6254980;27;96567;-72
2022/04/15 07:27:39;;;;;;;;;30.80;29.40;;;;;18.33;48.86;99013.97;6234294;27;96694;-73
2022/04/15 07:30:43;;;;;;;;;32.50;29.00;;;;;18.33;48.30;99024.88;6262799;27;96368;-71
2022/04/15 07:33:47;;;;;;;;;28.25;27.00;;;;;18.30;48.78;99030.06;6262966;27;96677;-71
2022/04/15 07:36:54;;;;;;;;;32.00;27.60;;;;;18.24;48.98;99039.31;6240971;27;98149;-71
2022/04/15 07:39:58;;;;;;;;;32.20;29.00;;;;;18.20;49.26;99044.50;6256605;27;97509;-71
2022/04/15 07:43:01;;;;;;;;;33.00;30.00;;;;;18.13;49.24;99039.28;6248014;27;97651;-71
2022/04/15 07:46:05;;;;;;;;;31.40;29.00;;;;;18.31;49.14;99051.63;6250899;27;96860;-71
2022/04/15 07:49:10;;;;;;;;;32.00;29.60;;;;;18.26;49.19;99028.97;6261687;27;97406;-73
2022/04/15 07:52:14;;;;;;;;;30.60;28.00;;;;;18.49;49.22;99056.59;6250141;27;96575;-72
2022/04/15 07:55:17;;;;;;;;;35.00;29.00;;;;;18.53;49.50;99056.88;6219921;28;97594;-71
2022/04/15 07:58:20;;;;;;;;;31.60;30.00;;;;;18.52;48.90;99060.72;6254639;27;98243;-72
2022/04/15 08:01:27;;;;;;;;;31.20;29.00;;;;;18.59;48.77;99056.66;6243664;27;96375;-70
2022/04/15 08:04:34;;;;;;;;;31.00;28.00;;;;;18.50;48.86;99062.88;6263383;27;97416;-71
2022/04/15 08:07:37;;;;;;;;;31.00;28.00;;;;;18.50;49.01;99062.88;6262901;27;97438;-71
2022/04/15 08:10:41;;;;;;;;;33.60;28.00;;;;;18.40;49.21;99062.84;6252883;27;97573;-71
2022/04/15 08:13:44;;;;;;;;;32.50;29.00;;;;;18.29;49.04;99044.78;6233795;27;96883;-71
2022/04/15 08:16:47;;;;;;;;;27.75;26.00;;;;;18.28;49.47;99054.88;6261289;27;98488;-69
2022/04/15 08:19:53;;;;;;;;;29.00;26.00;;;;;18.39;49.25;99064.75;6263600;27;98123;-70
2022/04/15 08:22:56;;;;;;;;;30.00;27.00;;;;;18.39;49.46;99063.94;6241286;27;96613;-71
2022/04/15 08:26:00;;;;;;;;;29.00;26.00;;;;;18.24;49.81;99052.97;6257076;27;97261;-70
2022/04/15 08:29:03;;;;;;;;;30.40;27.40;;;;;18.37;49.50;99066.13;6261002;27;97559;-71
2022/04/15 08:32:08;;;;;;;;;27.60;25.60;;;;;18.41;49.59;99067.22;6230311;27;97062;-71
2022/04/15 08:35:13;;;;;;;;;30.20;27.00;;;;;18.35;49.47;99066.38;6241399;27;96717;-73
2022/04/15 08:38:17;;;;;;;;;33.25;30.00;;;;;18.34;49.86;99056.56;6253633;27;97284;-72
2022/04/15 08:41:23;;;;;;;;;31.00;27.00;;;;;18.43;49.59;99062.31;6235503;28;96898;-73
2022/04/15 08:44:26;;;;;;;;;29.00;27.40;;;;;18.33;50.08;99065.81;6238052;28;97547;-71
2022/04/15 08:47:31;;;;;;;;;32.00;28.00;;;;;18.30;50.06;99060.91;6237440;27;100263;-71
2022/04/15 08:50:36;;;;;;;;;33.00;29.50;;;;;18.21;50.25;99072.59;6261601;27;96927;-71
2022/04/15 08:53:40;;;;;;;;;35.40;29.40;;;;;18.15;50.88;99067.13;6262846;27;96623;-73
2022/04/15 08:56:43;;;;;;;;;34.20;29.20;;;;;18.06;51.29;99079.63;6224981;27;97126;-71
2022/04/15 08:59:47;;;;;;;;;37.40;30.80;;;;;18.06;51.70;99081.53;6258640;27;98157;-72
2022/04/15 09:02:51;;;;;;;;;35.60;30.60;;;;;18.01;52.21;99078.78;6223123;27;98379;-71
2022/04/15 09:05:56;;;;;;;;;36.00;31.00;;;;;17.99;52.37;99072.78;6253605;27;97547;-71
2022/04/15 09:09:01;;;;;;;;;34.80;31.20;;;;;17.78;53.02;99051.94;6260010;27;96961;-72
2022/04/15 09:12:15;;;;;;;;;34.40;30.00;;;;;17.84;53.60;99078.16;6241798;27;97927;-69
2022/04/15 09:15:18;;;;;;;;;35.00;31.75;;;;;17.79;53.81;99075.41;6259585;27;97522;-69
2022/04/15 09:18:32;;;;;;;;;33.25;30.00;;;;;17.84;53.77;99072.72;6258248;27;97471;-69
2022/04/15 09:21:38;;;;;;;;;37.25;31.00;;;;;17.86;53.95;99068.63;6248451;27;97490;-72
2022/04/15 09:24:42;;;;;;;;;34.80;31.40;;;;;17.89;54.07;99069.97;6258851;27;96882;-70
2022/04/15 09:27:45;;;;;;;;;40.00;33.00;;;;;17.90;54.14;99056.09;6259268;27;98359;-71
2022/04/15 09:30:50;;;;;;;;;39.00;33.00;;;;;17.92;54.04;99062.13;6243166;27;97755;-69
2022/04/15 09:33:55;;;;;;;;;35.00;32.00;;;;;17.90;54.05;99064.28;6260243;27;96684;-72
2022/04/15 09:37:06;;;;;;;;;43.60;33.00;;;;;17.88;54.29;99058.28;6239875;27;96787;-71
2022/04/15 09:40:12;;;;;;;;;43.00;35.00;;;;;17.91;54.17;99060.47;6255618;27;97341;-71
2022/04/15 09:43:17;;;;;;;;;39.60;33.00;;;;;17.94;54.50;99053.66;6256209;27;97176;-70
2022/04/15 09:46:20;;;;;;;;;38.40;32.00;;;;;18.11;54.25;99055.09;6256197;27;97460;-72
2022/04/15 09:49:26;;;;;;;;;43.00;35.00;;;;;18.19;54.20;99053.75;6258608;27;97856;-71
2022/04/15 09:52:31;;;;;;;;;38.50;31.75;;;;;18.27;54.05;99049.72;6219517;27;97480;-70
2022/04/15 09:55:36;;;;;;;;;35.80;31.40;;;;;18.40;53.91;99050.03;6258959;27;96763;-71
2022/04/15 09:58:44;;;;;;;;;33.60;30.00;;;;;18.48;53.49;99045.94;6248222;27;96824;-72
2022/04/15 10:01:50;;;;;;;;;31.00;28.00;;;;;18.55;53.39;99046.56;6232647;27;97973;-71
2022/04/15 10:04:53;;;;;;;;;30.20;28.00;;;;;18.53;53.72;99046.81;6240867;27;97825;-72
2022/04/15 10:07:58;;;;;;;;;32.00;29.40;;;;;18.63;53.02;99054.19;6258365;27;96513;-72
2022/04/15 10:11:02;;;;;;;;;34.00;30.00;;;;;18.67;53.18;99054.50;6240837;27;96294;-71
2022/04/15 10:14:08;;;;;;;;;31.00;26.00;;;;;18.65;53.12;99060.22;6241755;27;97435;-72
2022/04/15 10:17:13;;;;;;;;;28.60;26.60;;;;;18.64;53.58;99063.22;6223843;27;98224;-70
2022/04/15 10:20:17;;;;;;;;;27.60;23.60;;;;;18.59;53.54;99053.94;6258254;27;98250;-71
2022/04/15 10:23:23;;;;;;;;;24.60;22.00;;;;;18.54;53.54;99064.00;6225329;27;96906;-70
2022/04/15 10:26:27;;;;;;;;;28.00;25.00;;;;;18.41;53.97;99061.78;6233288;27;98645;-72
2022/04/15 10:29:31;;;;;;;;;22.00;20.75;;;;;18.38;54.13;99059.56;6258425;27;96680;-71
2022/04/15 10:32:49;;;;;;;;;27.00;23.50;;;;;18.38;54.14;99068.56;6259100;27;96609;-73
2022/04/15 10:35:58;;;;;;;;;23.00;21.00;;;;;18.28;54.49;99070.44;6257471;27;98406;-69
2022/04/15 10:39:20;;;;;;;;;24.00;22.00;;;;;18.26;54.57;99061.72;6264348;27;96351;-69
2022/04/15 10:42:23;;;;;;;;;24.00;22.60;;;;;18.35;54.50;99066.38;6262591;27;96655;-71
2022/04/15 10:45:34;;;;;;;;;24.00;21.33;;;;;18.10;54.58;99039.00;6264611;27;96792;-72
2022/04/15 10:48:39;;;;;;;;;21.00;19.00;;;;;18.34;54.37;99061.19;6248608;27;96658;-71
2022/04/15 10:51:42;;;;;;;;;18.00;16.25;;;;;18.35;54.16;99057.38;6238296;27;97484;-70
2022/04/15 10:54:48;;;;;;;;;20.00;16.40;;;;;18.45;54.31;99055.50;6262771;27;96690;-70
2022/04/15 10:58:12;;;;;;;;;18.00;16.00;;;;;18.53;54.58;99055.00;6236367;27;97456;-71
2022/04/15 11:01:19;;;;;;;;;16.60;15.60;;;;;18.19;54.16;98989.09;6262865;27;97153;-70
2022/04/15 11:04:25;;;;;;;;;17.40;15.00;;;;;18.82;54.12;99052.59;6258602;27;96790;-70
2022/04/15 11:07:30;;;;;;;;;21.00;19.00;;;;;18.98;54.34;99047.97;6260268;27;96989;-70
2022/04/15 11:10:59;;;;;;;;;19.20;17.00;;;;;19.13;53.20;99047.97;6242452;27;96849;-71
2022/04/15 11:14:04;;;;;;;;;16.25;15.25;;;;;19.15;52.92;99056.75;6260999;27;97471;-74
2022/04/15 11:17:09;;;;;;;;;16.60;14.00;;;;;19.21;52.48;99050.16;6260958;27;96689;-70
2022/04/15 11:20:13;;;;;;;;;17.00;14.00;;;;;19.32;52.65;99046.34;6258923;27;96465;-70
2022/04/15 11:23:16;;;;;;;;;15.40;14.00;;;;;19.58;52.67;99040.88;6237671;27;96919;-72
2022/04/15 11:26:23;;;;;;;;;15.20;14.00;;;;;19.71;51.74;99043.84;6258847;27;97509;-71
2022/04/15 11:29:31;;;;;;;;;15.00;14.00;;;;;20.01;50.96;99034.72;6261596;27;97187;-71
2022/04/15 11:32:46;;;;;;;;;16.00;15.00;;;;;20.33;50.91;99044.50;6252072;27;98031;-71
2022/04/15 11:35:49;;;;;;;;;14.00;14.00;;;;;20.62;49.30;99042.69;6255640;27;97524;-71
2022/04/15 11:38:53;;;;;;;;;18.00;17.00;;;;;20.74;49.47;99041.22;6250644;27;96742;-70
2022/04/15 11:41:59;;;;;;;;;19.00;16.00;;;;;20.74;49.16;99049.44;6233935;27;96733;-70
2022/04/15 11:45:07;;;;;;;;;22.00;20.00;;;;;20.73;48.31;99038.75;6245710;27;96910;-72
2022/04/15 11:48:20;;;;;;;;;18.40;16.40;;;;;20.71;48.60;99040.97;6251415;27;96445;-70
2022/04/15 11:51:29;;;;;;;;;19.50;17.50;;;;;20.62;48.49;99039.94;6251513;27;99007;-70
2022/04/15 11:54:34;;;;;;;;;19.00;18.00;;;;;20.46;48.35;99039.22;6244699;27;96738;-70
2022/04/15 11:57:39;;;;;;;;;21.60;19.80;;;;;20.25;48.70;99037.63;6230167;27;98014;-70
2022/04/15 12:00:43;;;;;;;;;22.00;19.00;;;;;20.13;49.46;99035.25;6229270;27;96703;-70
2022/04/15 12:03:46;;;;;;;;;19.00;18.00;;;;;20.05;49.56;99033.06;6262818;27;97532;-70
2022/04/15 12:06:49;;;;;;;;;22.50;19.50;;;;;20.07;49.83;99033.63;6258837;27;97049;-69
2022/04/15 12:09:54;;;;;;;;;22.00;20.00;;;;;19.95;49.87;99030.34;6261798;27;96928;-71
2022/04/15 12:12:59;;;;;;;;;19.00;19.00;;;;;19.97;49.72;99024.63;6243417;27;96908;-71
2022/04/15 12:16:04;;;;;;;;;22.00;18.00;;;;;19.98;49.33;99016.13;6253244;27;96943;-70
2022/04/15 12:19:08;;;;;;;;;22.40;18.60;;;;;20.28;49.23;99013.25;6252985;27;97849;-72
2022/04/15 12:22:11;;;;;;;;;17.75;16.25;;;;;20.63;48.26;99011.44;6259936;27;97056;-73
2022/04/15 12:25:15;;;;;;;;;18.40;18.00;;;;;20.93;47.81;99008.47;6242437;27;98504;-72
2022/04/15 12:31:41;;;;;;;;;18.50;15.00;;;;;21.59;45.38;98994.19;6254996;27;97628;-72
2022/04/15 12:34:45;;;;;;;;;16.00;14.00;;;;;21.92;44.50;98982.28;6258960;27;98623;-71
2022/04/15 12:37:53;;;;;;;;;16.40;16.00;;;;;22.17;44.00;98980.34;6256915;27;97704;-70
2022/04/15 12:41:00;;;;;;;;;17.60;16.00;;;;;22.26;42.75;98982.13;6258059;27;97238;-70
2022/04/15 12:44:23;;;;;;;;;20.00;17.40;;;;;22.21;42.97;98979.44;6228883;27;96756;-70
2022/04/15 12:47:28;;;;;;;;;17.60;17.00;;;;;22.40;43.45;98990.44;6255499;27;97494;-70
2022/04/15 12:50:33;;;;;;;;;15.80;13.80;;;;;22.46;41.92;98979.09;6262371;27;97476;-72
2022/04/15 12:53:37;;;;;;;;;18.60;15.60;;;;;22.67;42.44;98979.63;6242776;27;97563;-71
2022/04/15 12:56:53;;;;;;;;;16.00;16.00;;;;;22.79;41.53;98980.00;6243717;27;97083;-70
2022/04/15 12:59:59;;;;;;;;;17.00;15.20;;;;;22.90;40.71;98969.66;6228390;27;96552;-70
2022/04/15 13:03:02;;;;;;;;;13.80;13.40;;;;;23.06;39.68;98971.03;6263068;27;97428;-70
2022/04/15 13:06:09;;;;;;;;;15.00;14.00;;;;;23.34;40.12;98966.41;6261726;27;97213;-70
2022/04/15 13:09:12;;;;;;;;;15.75;14.75;;;;;23.74;39.16;98964.84;6212295;28;98330;-70
2022/04/15 13:12:17;;;;;;;;;15.00;14.00;;;;;23.79;38.25;98958.44;6260245;27;96719;-71
2022/04/15 13:15:22;;;;;;;;;17.00;15.80;;;;;23.86;38.11;98951.38;6250115;27;96754;-71
2022/04/15 13:18:25;;;;;;;;;17.00;17.00;;;;;24.14;38.31;98960.44;6235142;27;97877;-72
2022/04/15 13:21:29;;;;;;;;;14.00;13.00;;;;;24.24;37.17;98951.16;6257332;27;98086;-73
2022/04/15 13:24:33;;;;;;;;;15.00;15.00;;;;;23.98;37.96;98953.63;6259037;27;98160;-71
2022/04/15 13:27:36;;;;;;;;;16.40;15.40;;;;;24.02;37.21;98949.13;6229593;27;97991;-71
2022/04/15 13:30:42;;;;;;;;;17.00;15.75;;;;;24.20;36.94;98939.13;6225840;27;97375;-71
2022/04/15 13:33:45;;;;;;;;;15.00;15.00;;;;;24.06;36.75;98950.13;6227676;27;98388;-72
2022/04/15 13:36:49;;;;;;;;;15.00;14.00;;;;;23.93;36.79;98935.25;6258054;27;96740;-69
2022/04/15 13:39:52;;;;;;;;;15.25;14.25;;;;;23.98;36.20;98937.91;6236802;27;96747;-71
2022/04/15 13:42:55;;;;;;;;;16.00;14.60;;;;;23.91;36.33;98933.94;6257936;27;97455;-71
2022/04/15 13:46:00;;;;;;;;;14.00;14.00;;;;;23.87;36.22;98924.66;6231053;27;96842;-71
2022/04/15 13:49:03;;;;;;;;;15.80;14.40;;;;;23.86;36.98;98912.81;6240757;27;98469;-73
2022/04/15 13:56:34;;;;;;;;;15.00;15.00;;;;;23.73;36.82;98911.72;6259489;27;96711;-71
2022/04/15 13:58:51;;;;;;;;;16.00;15.00;;;;;23.48;36.93;98911.41;6238349;27;97910;-71
2022/04/15 14:01:56;;;;;;;;;14.00;13.25;;;;;23.54;37.31;98923.97;6259328;27;97503;-69
2022/04/15 14:05:01;;;;;;;;;8.20;7.20;;;;;23.43;36.35;98936.25;6260111;27;97492;-70
2022/04/15 14:08:06;;;;;;;;;8.00;7.00;;;;;23.07;36.81;98955.34;6230329;27;98247;-73
2022/04/15 14:11:12;;;;;;;;;6.00;6.00;;;;;22.52;39.73;98963.34;6256206;27;97553;-72
2022/04/15 14:14:16;;;;;;;;;6.00;5.00;;;;;21.78;40.63;98942.09;6263324;27;97472;-71
2022/04/15 14:17:21;;;;;;;;;8.00;6.00;;;;;21.37;40.43;98945.31;6244837;27;96637;-71